sensor_id;sensor_type;location;lat;lon;timestamp;P1;durP1;ratioP1;P2;durP2;ratioP2
57441;SDS011;43284;47.042;15.498;2023-05-10T00:01:42;7.88;;;3.83;;
57441;SDS011;43284;47.042;15.498;2023-05-10T00:04:08;5.30;;;3.30;;
57441;SDS011;43284;47.042;15.498;2023-05-10T00:06:33;6.40;;;3.80;;
57441;SDS011;43284;47.042;15.498;2023-05-10T00:08:59;5.30;;;3.60;;
57441;SDS011;43284;47.042;15.498;2023-05-10T00:11:25;5.72;;;3.40;;
57441;SDS011;43284;47.042;15.498;2023-05-10T00:13:50;5.55;;;3.55;;
57441;SDS011;43284;47.042;15.498;2023-05-10T00:16:16;6.28;;;3.60;;
57441;SDS011;43284;47.042;15.498;2023-05-10T00:18:41;5.60;;;3.10;;
57441;SDS011;43284;47.042;15.498;2023-05-10T00:21:07;5.57;;;3.42;;
57441;SDS011;43284;47.042;15.498;2023-05-10T00:23:32;5.45;;;3.25;;
57441;SDS011;43284;47.042;15.498;2023-05-10T00:25:58;6.78;;;3.70;;
57441;SDS011;43284;47.042;15.498;2023-05-10T00:28:23;6.93;;;3.70;;
57441;SDS011;43284;47.042;15.498;2023-05-10T00:30:49;7.05;;;3.50;;
57441;SDS011;43284;47.042;15.498;2023-05-10T00:33:14;6.57;;;4.13;;
57441;SDS011;43284;47.042;15.498;2023-05-10T00:35:40;8.90;;;3.58;;
57441;SDS011;43284;47.042;15.498;2023-05-10T00:38:06;6.47;;;3.63;;
57441;SDS011;43284;47.042;15.498;2023-05-10T00:40:31;6.75;;;3.35;;
57441;SDS011;43284;47.042;15.498;2023-05-10T00:42:57;6.00;;;3.47;;
57441;SDS011;43284;47.042;15.498;2023-05-10T00:45:25;6.38;;;3.72;;
57441;SDS011;43284;47.042;15.498;2023-05-10T00:47:51;8.25;;;3.95;;
57441;SDS011;43284;47.042;15.498;2023-05-10T00:50:20;7.40;;;4.28;;
57441;SDS011;43284;47.042;15.498;2023-05-10T00:52:46;7.75;;;4.70;;
57441;SDS011;43284;47.042;15.498;2023-05-10T00:55:12;11.13;;;4.40;;
57441;SDS011;43284;47.042;15.498;2023-05-10T00:57:38;9.20;;;4.07;;
57441;SDS011;43284;47.042;15.498;2023-05-10T01:00:04;7.80;;;3.67;;
57441;SDS011;43284;47.042;15.498;2023-05-10T01:02:30;11.48;;;4.03;;
57441;SDS011;43284;47.042;15.498;2023-05-10T01:04:56;6.55;;;4.38;;
57441;SDS011;43284;47.042;15.498;2023-05-10T01:07:21;8.95;;;4.43;;
57441;SDS011;43284;47.042;15.498;2023-05-10T01:09:47;9.85;;;4.95;;
57441;SDS011;43284;47.042;15.498;2023-05-10T01:12:12;9.75;;;3.80;;
57441;SDS011;43284;47.042;15.498;2023-05-10T01:14:40;8.63;;;4.30;;
57441;SDS011;43284;47.042;15.498;2023-05-10T01:17:05;7.25;;;3.78;;
57441;SDS011;43284;47.042;15.498;2023-05-10T01:19:32;8.75;;;4.68;;
57441;SDS011;43284;47.042;15.498;2023-05-10T01:33:39;8.27;;;3.97;;
57441;SDS011;43284;47.042;15.498;2023-05-10T01:47:24;6.40;;;3.70;;
57441;SDS011;43284;47.042;15.498;2023-05-10T01:50:30;8.57;;;3.80;;
57441;SDS011;43284;47.042;15.498;2023-05-10T01:52:57;6.30;;;3.75;;
57441;SDS011;43284;47.042;15.498;2023-05-10T01:55:27;8.40;;;4.13;;
57441;SDS011;43284;47.042;15.498;2023-05-10T01:58:01;11.50;;;4.07;;
57441;SDS011;43284;47.042;15.498;2023-05-10T02:00:29;6.28;;;3.55;;
57441;SDS011;43284;47.042;15.498;2023-05-10T02:02:56;9.02;;;4.10;;
57441;SDS011;43284;47.042;15.498;2023-05-10T02:05:22;8.60;;;4.20;;
57441;SDS011;43284;47.042;15.498;2023-05-10T02:07:50;10.07;;;4.25;;
57441;SDS011;43284;47.042;15.498;2023-05-10T02:10:16;7.65;;;4.47;;
57441;SDS011;43284;47.042;15.498;2023-05-10T02:12:43;8.32;;;4.43;;
57441;SDS011;43284;47.042;15.498;2023-05-10T02:15:11;10.15;;;4.68;;
57441;SDS011;43284;47.042;15.498;2023-05-10T02:17:40;8.35;;;4.68;;
57441;SDS011;43284;47.042;15.498;2023-05-10T02:20:07;11.45;;;4.97;;
57441;SDS011;43284;47.042;15.498;2023-05-10T02:22:34;8.65;;;4.57;;
57441;SDS011;43284;47.042;15.498;2023-05-10T02:25:02;13.65;;;4.70;;
57441;SDS011;43284;47.042;15.498;2023-05-10T02:27:29;7.28;;;3.78;;
57441;SDS011;43284;47.042;15.498;2023-05-10T02:29:55;8.52;;;3.97;;
57441;SDS011;43284;47.042;15.498;2023-05-10T02:32:24;6.78;;;4.20;;
57441;SDS011;43284;47.042;15.498;2023-05-10T02:34:51;6.70;;;3.83;;
57441;SDS011;43284;47.042;15.498;2023-05-10T02:37:20;8.25;;;4.15;;
57441;SDS011;43284;47.042;15.498;2023-05-10T02:39:50;8.82;;;4.60;;
57441;SDS011;43284;47.042;15.498;2023-05-10T02:42:19;8.88;;;3.95;;
57441;SDS011;43284;47.042;15.498;2023-05-10T02:44:51;8.00;;;4.57;;
57441;SDS011;43284;47.042;15.498;2023-05-10T02:47:21;8.15;;;4.60;;
57441;SDS011;43284;47.042;15.498;2023-05-10T02:49:46;7.80;;;4.68;;
57441;SDS011;43284;47.042;15.498;2023-05-10T02:52:14;9.20;;;3.92;;
57441;SDS011;43284;47.042;15.498;2023-05-10T02:54:45;7.05;;;4.20;;
57441;SDS011;43284;47.042;15.498;2023-05-10T02:57:15;6.95;;;3.92;;
57441;SDS011;43284;47.042;15.498;2023-05-10T02:59:45;7.75;;;4.25;;
57441;SDS011;43284;47.042;15.498;2023-05-10T03:02:13;9.60;;;4.03;;
57441;SDS011;43284;47.042;15.498;2023-05-10T03:04:39;8.13;;;4.65;;
57441;SDS011;43284;47.042;15.498;2023-05-10T03:07:05;6.28;;;3.90;;
57441;SDS011;43284;47.042;15.498;2023-05-10T03:09:31;8.43;;;3.55;;
57441;SDS011;43284;47.042;15.498;2023-05-10T03:12:18;9.30;;;4.32;;
57441;SDS011;43284;47.042;15.498;2023-05-10T03:20:24;8.38;;;4.43;;
57441;SDS011;43284;47.042;15.498;2023-05-10T03:23:40;8.13;;;4.20;;
57441;SDS011;43284;47.042;15.498;2023-05-10T03:25:42;7.72;;;3.78;;
57441;SDS011;43284;47.042;15.498;2023-05-10T03:28:09;9.82;;;4.00;;
57441;SDS011;43284;47.042;15.498;2023-05-10T03:30:35;8.50;;;4.75;;
57441;SDS011;43284;47.042;15.498;2023-05-10T03:33:07;11.20;;;4.95;;
57441;SDS011;43284;47.042;15.498;2023-05-10T03:35:33;11.70;;;5.82;;
57441;SDS011;43284;47.042;15.498;2023-05-10T03:37:58;10.32;;;5.28;;
57441;SDS011;43284;47.042;15.498;2023-05-10T03:40:24;9.90;;;5.40;;
57441;SDS011;43284;47.042;15.498;2023-05-10T03:42:51;13.35;;;5.43;;
57441;SDS011;43284;47.042;15.498;2023-05-10T03:45:16;9.05;;;4.47;;
57441;SDS011;43284;47.042;15.498;2023-05-10T03:47:42;8.88;;;4.70;;
57441;SDS011;43284;47.042;15.498;2023-05-10T03:50:07;12.27;;;4.45;;
57441;SDS011;43284;47.042;15.498;2023-05-10T03:52:33;9.43;;;4.50;;
57441;SDS011;43284;47.042;15.498;2023-05-10T03:54:59;6.88;;;4.05;;
57441;SDS011;43284;47.042;15.498;2023-05-10T03:57:24;12.60;;;5.20;;
57441;SDS011;43284;47.042;15.498;2023-05-10T03:59:50;8.25;;;4.07;;
57441;SDS011;43284;47.042;15.498;2023-05-10T04:02:15;19.65;;;7.95;;
57441;SDS011;43284;47.042;15.498;2023-05-10T04:04:41;27.92;;;10.45;;
57441;SDS011;43284;47.042;15.498;2023-05-10T04:07:06;20.42;;;8.25;;
57441;SDS011;43284;47.042;15.498;2023-05-10T04:09:32;14.15;;;7.18;;
57441;SDS011;43284;47.042;15.498;2023-05-10T04:11:58;8.23;;;5.25;;
57441;SDS011;43284;47.042;15.498;2023-05-10T04:14:25;11.75;;;5.22;;
57441;SDS011;43284;47.042;15.498;2023-05-10T04:16:51;12.10;;;5.32;;
57441;SDS011;43284;47.042;15.498;2023-05-10T04:19:16;7.93;;;4.50;;
57441;SDS011;43284;47.042;15.498;2023-05-10T04:21:42;9.88;;;4.22;;
57441;SDS011;43284;47.042;15.498;2023-05-10T04:24:07;11.43;;;6.15;;
57441;SDS011;43284;47.042;15.498;2023-05-10T04:26:33;12.35;;;5.18;;
57441;SDS011;43284;47.042;15.498;2023-05-10T04:28:58;9.57;;;5.53;;
57441;SDS011;43284;47.042;15.498;2023-05-10T04:31:24;19.45;;;5.55;;
57441;SDS011;43284;47.042;15.498;2023-05-10T04:33:49;11.20;;;5.57;;
57441;SDS011;43284;47.042;15.498;2023-05-10T04:36:15;13.30;;;6.47;;
57441;SDS011;43284;47.042;15.498;2023-05-10T04:38:40;9.77;;;5.22;;
57441;SDS011;43284;47.042;15.498;2023-05-10T04:41:06;9.90;;;5.00;;
57441;SDS011;43284;47.042;15.498;2023-05-10T04:43:33;10.25;;;4.85;;
57441;SDS011;43284;47.042;15.498;2023-05-10T04:45:58;8.70;;;4.80;;
57441;SDS011;43284;47.042;15.498;2023-05-10T04:48:24;10.25;;;5.25;;
57441;SDS011;43284;47.042;15.498;2023-05-10T04:50:50;9.10;;;5.07;;
57441;SDS011;43284;47.042;15.498;2023-05-10T04:53:15;10.35;;;5.63;;
57441;SDS011;43284;47.042;15.498;2023-05-10T04:55:41;10.20;;;5.82;;
57441;SDS011;43284;47.042;15.498;2023-05-10T04:58:06;11.40;;;5.32;;
57441;SDS011;43284;47.042;15.498;2023-05-10T05:00:32;10.45;;;6.30;;
57441;SDS011;43284;47.042;15.498;2023-05-10T05:02:58;10.70;;;4.93;;
57441;SDS011;43284;47.042;15.498;2023-05-10T05:05:24;10.60;;;5.57;;
57441;SDS011;43284;47.042;15.498;2023-05-10T05:07:49;13.35;;;5.60;;
57441;SDS011;43284;47.042;15.498;2023-05-10T05:10:15;11.18;;;5.80;;
57441;SDS011;43284;47.042;15.498;2023-05-10T05:12:41;9.52;;;4.75;;
57441;SDS011;43284;47.042;15.498;2023-05-10T05:15:07;9.00;;;4.70;;
57441;SDS011;43284;47.042;15.498;2023-05-10T05:17:34;8.02;;;4.78;;
57441;SDS011;43284;47.042;15.498;2023-05-10T05:19:59;9.50;;;5.45;;
57441;SDS011;43284;47.042;15.498;2023-05-10T05:22:25;9.43;;;4.97;;
57441;SDS011;43284;47.042;15.498;2023-05-10T05:24:52;11.70;;;5.47;;
57441;SDS011;43284;47.042;15.498;2023-05-10T05:27:19;14.02;;;5.88;;
57441;SDS011;43284;47.042;15.498;2023-05-10T05:29:46;12.68;;;6.00;;
57441;SDS011;43284;47.042;15.498;2023-05-10T05:32:11;9.70;;;4.93;;
57441;SDS011;43284;47.042;15.498;2023-05-10T05:34:37;9.00;;;4.78;;
57441;SDS011;43284;47.042;15.498;2023-05-10T05:37:02;10.27;;;5.63;;
57441;SDS011;43284;47.042;15.498;2023-05-10T05:39:28;8.93;;;5.20;;
57441;SDS011;43284;47.042;15.498;2023-05-10T05:41:53;14.98;;;6.07;;
57441;SDS011;43284;47.042;15.498;2023-05-10T05:44:19;12.23;;;6.43;;
57441;SDS011;43284;47.042;15.498;2023-05-10T05:46:45;15.27;;;7.50;;
57441;SDS011;43284;47.042;15.498;2023-05-10T05:49:10;11.40;;;6.63;;
57441;SDS011;43284;47.042;15.498;2023-05-10T05:51:36;12.15;;;6.28;;
57441;SDS011;43284;47.042;15.498;2023-05-10T05:54:01;15.85;;;7.75;;
57441;SDS011;43284;47.042;15.498;2023-05-10T05:56:29;17.45;;;8.25;;
57441;SDS011;43284;47.042;15.498;2023-05-10T05:58:55;12.05;;;6.10;;
57441;SDS011;43284;47.042;15.498;2023-05-10T06:01:20;15.65;;;8.32;;
57441;SDS011;43284;47.042;15.498;2023-05-10T06:03:46;20.70;;;8.18;;
57441;SDS011;43284;47.042;15.498;2023-05-10T06:06:11;12.82;;;7.38;;
57441;SDS011;43284;47.042;15.498;2023-05-10T06:08:37;17.17;;;8.05;;
57441;SDS011;43284;47.042;15.498;2023-05-10T06:11:03;15.85;;;7.50;;
57441;SDS011;43284;47.042;15.498;2023-05-10T06:13:29;14.63;;;6.78;;
57441;SDS011;43284;47.042;15.498;2023-05-10T06:15:57;11.55;;;6.32;;
57441;SDS011;43284;47.042;15.498;2023-05-10T06:18:23;11.63;;;6.63;;
57441;SDS011;43284;47.042;15.498;2023-05-10T06:20:50;13.55;;;7.20;;
57441;SDS011;43284;47.042;15.498;2023-05-10T06:23:16;17.30;;;7.60;;
57441;SDS011;43284;47.042;15.498;2023-05-10T06:25:42;15.93;;;7.70;;
57441;SDS011;43284;47.042;15.498;2023-05-10T06:28:07;17.52;;;8.20;;
57441;SDS011;43284;47.042;15.498;2023-05-10T06:30:33;13.80;;;7.72;;
57441;SDS011;43284;47.042;15.498;2023-05-10T06:32:58;12.65;;;7.40;;
57441;SDS011;43284;47.042;15.498;2023-05-10T06:35:24;13.35;;;7.78;;
57441;SDS011;43284;47.042;15.498;2023-05-10T06:37:49;16.25;;;7.32;;
57441;SDS011;43284;47.042;15.498;2023-05-10T06:40:16;16.52;;;8.15;;
57441;SDS011;43284;47.042;15.498;2023-05-10T06:42:42;15.07;;;7.80;;
57441;SDS011;43284;47.042;15.498;2023-05-10T06:45:07;15.40;;;7.30;;
57441;SDS011;43284;47.042;15.498;2023-05-10T06:47:34;13.57;;;6.90;;
57441;SDS011;43284;47.042;15.498;2023-05-10T06:49:59;14.70;;;5.80;;
57441;SDS011;43284;47.042;15.498;2023-05-10T06:52:25;13.90;;;6.95;;
57441;SDS011;43284;47.042;15.498;2023-05-10T06:54:51;12.70;;;6.35;;
57441;SDS011;43284;47.042;15.498;2023-05-10T06:57:16;14.20;;;5.88;;
57441;SDS011;43284;47.042;15.498;2023-05-10T06:59:42;15.40;;;6.25;;
57441;SDS011;43284;47.042;15.498;2023-05-10T07:02:08;11.25;;;6.25;;
57441;SDS011;43284;47.042;15.498;2023-05-10T07:04:34;13.77;;;6.03;;
57441;SDS011;43284;47.042;15.498;2023-05-10T07:06:59;10.60;;;6.07;;
57441;SDS011;43284;47.042;15.498;2023-05-10T07:09:25;11.27;;;5.95;;
57441;SDS011;43284;47.042;15.498;2023-05-10T07:11:50;15.30;;;5.82;;
57441;SDS011;43284;47.042;15.498;2023-05-10T07:14:16;15.20;;;6.45;;
57441;SDS011;43284;47.042;15.498;2023-05-10T07:16:41;10.20;;;6.07;;
57441;SDS011;43284;47.042;15.498;2023-05-10T07:19:07;12.52;;;6.03;;
57441;SDS011;43284;47.042;15.498;2023-05-10T07:21:32;14.93;;;5.90;;
57441;SDS011;43284;47.042;15.498;2023-05-10T07:23:58;9.68;;;5.03;;
57441;SDS011;43284;47.042;15.498;2023-05-10T07:26:24;10.10;;;5.22;;
57441;SDS011;43284;47.042;15.498;2023-05-10T07:28:50;11.60;;;5.72;;
57441;SDS011;43284;47.042;15.498;2023-05-10T07:31:15;8.65;;;5.30;;
57441;SDS011;43284;47.042;15.498;2023-05-10T07:33:41;12.25;;;5.78;;
57441;SDS011;43284;47.042;15.498;2023-05-10T07:36:06;9.70;;;6.05;;
57441;SDS011;43284;47.042;15.498;2023-05-10T07:38:32;11.48;;;6.00;;
57441;SDS011;43284;47.042;15.498;2023-05-10T07:40:57;11.85;;;5.72;;
57441;SDS011;43284;47.042;15.498;2023-05-10T07:43:23;9.70;;;4.78;;
57441;SDS011;43284;47.042;15.498;2023-05-10T07:45:48;12.90;;;6.20;;
57441;SDS011;43284;47.042;15.498;2023-05-10T07:48:14;8.70;;;4.25;;
57441;SDS011;43284;47.042;15.498;2023-05-10T07:50:39;10.75;;;5.68;;
57441;SDS011;43284;47.042;15.498;2023-05-10T07:53:05;11.40;;;5.63;;
57441;SDS011;43284;47.042;15.498;2023-05-10T07:55:30;12.10;;;5.93;;
57441;SDS011;43284;47.042;15.498;2023-05-10T07:57:56;15.02;;;5.85;;
57441;SDS011;43284;47.042;15.498;2023-05-10T08:00:21;10.68;;;5.40;;
57441;SDS011;43284;47.042;15.498;2023-05-10T08:02:47;10.68;;;5.45;;
57441;SDS011;43284;47.042;15.498;2023-05-10T08:05:12;12.27;;;5.93;;
57441;SDS011;43284;47.042;15.498;2023-05-10T08:07:38;9.75;;;5.32;;
57441;SDS011;43284;47.042;15.498;2023-05-10T08:10:04;8.55;;;5.10;;
57441;SDS011;43284;47.042;15.498;2023-05-10T08:12:30;12.50;;;5.38;;
57441;SDS011;43284;47.042;15.498;2023-05-10T08:14:56;8.48;;;4.93;;
57441;SDS011;43284;47.042;15.498;2023-05-10T08:17:21;8.75;;;5.30;;
57441;SDS011;43284;47.042;15.498;2023-05-10T08:19:47;10.90;;;4.72;;
57441;SDS011;43284;47.042;15.498;2023-05-10T08:22:12;8.60;;;4.95;;
57441;SDS011;43284;47.042;15.498;2023-05-10T08:24:38;12.90;;;6.07;;
57441;SDS011;43284;47.042;15.498;2023-05-10T08:27:07;9.15;;;4.85;;
57441;SDS011;43284;47.042;15.498;2023-05-10T08:29:33;10.90;;;5.57;;
57441;SDS011;43284;47.042;15.498;2023-05-10T08:31:59;12.75;;;5.43;;
57441;SDS011;43284;47.042;15.498;2023-05-10T08:34:26;10.70;;;5.72;;
57441;SDS011;43284;47.042;15.498;2023-05-10T08:36:51;9.90;;;5.80;;
57441;SDS011;43284;47.042;15.498;2023-05-10T08:39:17;8.45;;;4.40;;
57441;SDS011;43284;47.042;15.498;2023-05-10T08:41:44;7.40;;;4.53;;
57441;SDS011;43284;47.042;15.498;2023-05-10T08:44:10;9.20;;;4.22;;
57441;SDS011;43284;47.042;15.498;2023-05-10T08:46:36;9.30;;;4.32;;
57441;SDS011;43284;47.042;15.498;2023-05-10T08:49:06;8.00;;;4.28;;
57441;SDS011;43284;47.042;15.498;2023-05-10T08:51:38;7.75;;;4.53;;
57441;SDS011;43284;47.042;15.498;2023-05-10T08:56:35;11.05;;;5.22;;
57441;SDS011;43284;47.042;15.498;2023-05-10T08:59:01;10.02;;;5.18;;
57441;SDS011;43284;47.042;15.498;2023-05-10T09:01:27;9.88;;;5.60;;
57441;SDS011;43284;47.042;15.498;2023-05-10T09:03:56;10.43;;;4.78;;
57441;SDS011;43284;47.042;15.498;2023-05-10T09:06:23;8.30;;;4.68;;
57441;SDS011;43284;47.042;15.498;2023-05-10T09:08:49;8.73;;;4.43;;
57441;SDS011;43284;47.042;15.498;2023-05-10T09:11:15;9.90;;;4.68;;
57441;SDS011;43284;47.042;15.498;2023-05-10T09:13:41;8.57;;;4.78;;
57441;SDS011;43284;47.042;15.498;2023-05-10T09:16:08;7.00;;;4.38;;
57441;SDS011;43284;47.042;15.498;2023-05-10T09:18:34;7.13;;;4.72;;
57441;SDS011;43284;47.042;15.498;2023-05-10T09:20:59;9.80;;;5.40;;
57441;SDS011;43284;47.042;15.498;2023-05-10T09:23:25;9.38;;;4.90;;
57441;SDS011;43284;47.042;15.498;2023-05-10T09:26:06;8.02;;;5.20;;
57441;SDS011;43284;47.042;15.498;2023-05-10T09:31:18;9.45;;;4.68;;
57441;SDS011;43284;47.042;15.498;2023-05-10T09:33:44;7.10;;;4.68;;
57441;SDS011;43284;47.042;15.498;2023-05-10T09:36:11;7.45;;;4.70;;
57441;SDS011;43284;47.042;15.498;2023-05-10T09:38:46;10.95;;;4.43;;
57441;SDS011;43284;47.042;15.498;2023-05-10T09:41:17;10.45;;;4.47;;
57441;SDS011;43284;47.042;15.498;2023-05-10T09:43:43;10.15;;;5.10;;
57441;SDS011;43284;47.042;15.498;2023-05-10T09:46:09;8.68;;;3.83;;
57441;SDS011;43284;47.042;15.498;2023-05-10T09:48:47;6.43;;;3.90;;
57441;SDS011;43284;47.042;15.498;2023-05-10T09:51:23;8.93;;;4.57;;
57441;SDS011;43284;47.042;15.498;2023-05-10T09:54:12;9.35;;;4.85;;
57441;SDS011;43284;47.042;15.498;2023-05-10T09:56:39;5.75;;;3.60;;
57441;SDS011;43284;47.042;15.498;2023-05-10T09:59:06;6.30;;;3.10;;
57441;SDS011;43284;47.042;15.498;2023-05-10T10:01:36;6.60;;;3.20;;
57441;SDS011;43284;47.042;15.498;2023-05-10T10:04:05;6.85;;;3.90;;
57441;SDS011;43284;47.042;15.498;2023-05-10T10:06:41;6.60;;;3.80;;
57441;SDS011;43284;47.042;15.498;2023-05-10T10:09:07;6.95;;;3.83;;
57441;SDS011;43284;47.042;15.498;2023-05-10T10:11:34;8.65;;;3.65;;
57441;SDS011;43284;47.042;15.498;2023-05-10T10:14:01;5.85;;;3.78;;
57441;SDS011;43284;47.042;15.498;2023-05-10T10:16:27;12.63;;;3.92;;
57441;SDS011;43284;47.042;15.498;2023-05-10T10:18:54;8.05;;;3.88;;
57441;SDS011;43284;47.042;15.498;2023-05-10T10:21:20;7.10;;;3.92;;
57441;SDS011;43284;47.042;15.498;2023-05-10T10:23:47;6.25;;;3.53;;
57441;SDS011;43284;47.042;15.498;2023-05-10T10:26:12;7.55;;;4.47;;
57441;SDS011;43284;47.042;15.498;2023-05-10T10:28:54;6.25;;;4.35;;
57441;SDS011;43284;47.042;15.498;2023-05-10T10:31:40;7.07;;;4.32;;
57441;SDS011;43284;47.042;15.498;2023-05-10T10:34:10;8.73;;;4.32;;
57441;SDS011;43284;47.042;15.498;2023-05-10T10:36:51;10.02;;;4.82;;
57441;SDS011;43284;47.042;15.498;2023-05-10T10:39:16;9.40;;;4.55;;
57441;SDS011;43284;47.042;15.498;2023-05-10T10:41:53;6.38;;;3.75;;
57441;SDS011;43284;47.042;15.498;2023-05-10T10:49:26;9.55;;;3.92;;
57441;SDS011;43284;47.042;15.498;2023-05-10T10:54:40;7.35;;;4.70;;
57441;SDS011;43284;47.042;15.498;2023-05-10T10:57:10;7.55;;;5.13;;
57441;SDS011;43284;47.042;15.498;2023-05-10T10:59:41;8.98;;;4.72;;
57441;SDS011;43284;47.042;15.498;2023-05-10T11:04:58;6.45;;;4.22;;
57441;SDS011;43284;47.042;15.498;2023-05-10T11:07:24;7.20;;;4.35;;
57441;SDS011;43284;47.042;15.498;2023-05-10T11:09:49;6.63;;;4.70;;
57441;SDS011;43284;47.042;15.498;2023-05-10T11:12:15;7.55;;;4.43;;
57441;SDS011;43284;47.042;15.498;2023-05-10T11:14:40;6.35;;;4.18;;
57441;SDS011;43284;47.042;15.498;2023-05-10T11:17:26;8.23;;;5.03;;
57441;SDS011;43284;47.042;15.498;2023-05-10T11:20:08;7.43;;;4.88;;
57441;SDS011;43284;47.042;15.498;2023-05-10T11:22:50;7.78;;;4.63;;
57441;SDS011;43284;47.042;15.498;2023-05-10T11:25:20;7.57;;;4.80;;
57441;SDS011;43284;47.042;15.498;2023-05-10T11:27:51;7.18;;;4.35;;
57441;SDS011;43284;47.042;15.498;2023-05-10T11:30:17;7.20;;;4.53;;
57441;SDS011;43284;47.042;15.498;2023-05-10T11:32:42;9.52;;;4.97;;
57441;SDS011;43284;47.042;15.498;2023-05-10T11:35:12;6.32;;;4.22;;
57441;SDS011;43284;47.042;15.498;2023-05-10T11:37:41;8.18;;;4.45;;
57441;SDS011;43284;47.042;15.498;2023-05-10T11:40:08;8.13;;;4.85;;
57441;SDS011;43284;47.042;15.498;2023-05-10T11:42:37;9.30;;;4.57;;
57441;SDS011;43284;47.042;15.498;2023-05-10T11:45:04;8.75;;;4.55;;
57441;SDS011;43284;47.042;15.498;2023-05-10T11:47:30;8.75;;;5.18;;
57441;SDS011;43284;47.042;15.498;2023-05-10T11:49:55;6.35;;;4.25;;
57441;SDS011;43284;47.042;15.498;2023-05-10T11:52:22;10.57;;;4.28;;
57441;SDS011;43284;47.042;15.498;2023-05-10T11:54:52;7.30;;;3.85;;
57441;SDS011;43284;47.042;15.498;2023-05-10T11:57:25;7.70;;;4.53;;
57441;SDS011;43284;47.042;15.498;2023-05-10T11:59:56;6.68;;;4.40;;
57441;SDS011;43284;47.042;15.498;2023-05-10T12:02:22;7.80;;;4.57;;
57441;SDS011;43284;47.042;15.498;2023-05-10T12:04:48;6.90;;;4.10;;
57441;SDS011;43284;47.042;15.498;2023-05-10T12:07:14;7.22;;;4.32;;
57441;SDS011;43284;47.042;15.498;2023-05-10T12:09:44;6.57;;;4.30;;
57441;SDS011;43284;47.042;15.498;2023-05-10T12:12:10;8.07;;;4.95;;
57441;SDS011;43284;47.042;15.498;2023-05-10T12:14:40;9.52;;;4.75;;
57441;SDS011;43284;47.042;15.498;2023-05-10T12:17:06;7.22;;;4.63;;
57441;SDS011;43284;47.042;15.498;2023-05-10T12:19:37;5.88;;;4.07;;
57441;SDS011;43284;47.042;15.498;2023-05-10T12:22:06;5.55;;;3.92;;
57441;SDS011;43284;47.042;15.498;2023-05-10T12:24:35;9.73;;;4.68;;
57441;SDS011;43284;47.042;15.498;2023-05-10T12:27:04;8.95;;;3.67;;
57441;SDS011;43284;47.042;15.498;2023-05-10T12:29:32;5.80;;;4.15;;
57441;SDS011;43284;47.042;15.498;2023-05-10T12:31:58;8.98;;;4.15;;
57441;SDS011;43284;47.042;15.498;2023-05-10T12:34:34;5.97;;;3.60;;
57441;SDS011;43284;47.042;15.498;2023-05-10T12:37:01;5.68;;;3.28;;
57441;SDS011;43284;47.042;15.498;2023-05-10T12:39:40;5.57;;;3.92;;
57441;SDS011;43284;47.042;15.498;2023-05-10T12:42:07;6.05;;;3.85;;
57441;SDS011;43284;47.042;15.498;2023-05-10T12:44:33;7.10;;;3.65;;
57441;SDS011;43284;47.042;15.498;2023-05-10T12:46:58;6.70;;;3.47;;
57441;SDS011;43284;47.042;15.498;2023-05-10T12:49:24;4.70;;;3.38;;
57441;SDS011;43284;47.042;15.498;2023-05-10T12:51:49;8.52;;;3.95;;
57441;SDS011;43284;47.042;15.498;2023-05-10T12:54:15;7.03;;;3.40;;
57441;SDS011;43284;47.042;15.498;2023-05-10T12:56:40;4.85;;;3.70;;
57441;SDS011;43284;47.042;15.498;2023-05-10T12:59:07;10.25;;;4.00;;
57441;SDS011;43284;47.042;15.498;2023-05-10T13:01:33;7.60;;;3.58;;
57441;SDS011;43284;47.042;15.498;2023-05-10T13:03:58;6.60;;;4.65;;
57441;SDS011;43284;47.042;15.498;2023-05-10T13:06:25;6.97;;;3.90;;
57441;SDS011;43284;47.042;15.498;2023-05-10T13:08:50;11.93;;;4.07;;
57441;SDS011;43284;47.042;15.498;2023-05-10T13:11:16;6.43;;;4.25;;
57441;SDS011;43284;47.042;15.498;2023-05-10T13:13:44;6.28;;;4.28;;
57441;SDS011;43284;47.042;15.498;2023-05-10T13:16:10;7.82;;;4.22;;
57441;SDS011;43284;47.042;15.498;2023-05-10T13:18:35;6.05;;;4.00;;
57441;SDS011;43284;47.042;15.498;2023-05-10T13:21:01;7.78;;;3.55;;
57441;SDS011;43284;47.042;15.498;2023-05-10T13:23:28;8.82;;;4.03;;
57441;SDS011;43284;47.042;15.498;2023-05-10T13:25:54;9.52;;;4.53;;
57441;SDS011;43284;47.042;15.498;2023-05-10T13:28:20;5.95;;;3.58;;
57441;SDS011;43284;47.042;15.498;2023-05-10T13:30:45;5.75;;;3.95;;
57441;SDS011;43284;47.042;15.498;2023-05-10T13:33:11;6.80;;;3.80;;
57441;SDS011;43284;47.042;15.498;2023-05-10T13:35:36;6.47;;;4.38;;
57441;SDS011;43284;47.042;15.498;2023-05-10T13:38:02;9.23;;;4.53;;
57441;SDS011;43284;47.042;15.498;2023-05-10T13:40:27;10.75;;;4.40;;
57441;SDS011;43284;47.042;15.498;2023-05-10T13:42:53;4.35;;;3.47;;
57441;SDS011;43284;47.042;15.498;2023-05-10T13:45:18;7.18;;;4.13;;
57441;SDS011;43284;47.042;15.498;2023-05-10T13:47:44;7.07;;;4.10;;
57441;SDS011;43284;47.042;15.498;2023-05-10T13:50:10;11.68;;;4.40;;
57441;SDS011;43284;47.042;15.498;2023-05-10T13:52:35;27.38;;;13.68;;
57441;SDS011;43284;47.042;15.498;2023-05-10T13:55:00;18.20;;;8.43;;
57441;SDS011;43284;47.042;15.498;2023-05-10T13:57:26;7.10;;;4.60;;
57441;SDS011;43284;47.042;15.498;2023-05-10T13:59:52;5.05;;;3.75;;
57441;SDS011;43284;47.042;15.498;2023-05-10T14:02:18;7.25;;;4.20;;
57441;SDS011;43284;47.042;15.498;2023-05-10T14:04:43;5.80;;;4.13;;
57441;SDS011;43284;47.042;15.498;2023-05-10T14:07:09;4.90;;;3.58;;
57441;SDS011;43284;47.042;15.498;2023-05-10T14:09:34;5.75;;;3.45;;
57441;SDS011;43284;47.042;15.498;2023-05-10T14:12:00;8.23;;;3.95;;
57441;SDS011;43284;47.042;15.498;2023-05-10T14:14:26;5.78;;;4.35;;
57441;SDS011;43284;47.042;15.498;2023-05-10T14:16:51;8.55;;;4.45;;
57441;SDS011;43284;47.042;15.498;2023-05-10T14:19:17;5.40;;;4.15;;
57441;SDS011;43284;47.042;15.498;2023-05-10T14:21:42;4.30;;;3.42;;
57441;SDS011;43284;47.042;15.498;2023-05-10T14:24:08;6.30;;;4.25;;
57441;SDS011;43284;47.042;15.498;2023-05-10T14:26:33;7.45;;;4.47;;
57441;SDS011;43284;47.042;15.498;2023-05-10T14:28:59;5.30;;;4.10;;
57441;SDS011;43284;47.042;15.498;2023-05-10T14:31:25;5.25;;;3.97;;
57441;SDS011;43284;47.042;15.498;2023-05-10T14:33:50;5.80;;;4.07;;
57441;SDS011;43284;47.042;15.498;2023-05-10T14:36:16;7.93;;;4.55;;
57441;SDS011;43284;47.042;15.498;2023-05-10T14:38:42;5.20;;;4.05;;
57441;SDS011;43284;47.042;15.498;2023-05-10T14:41:08;4.82;;;3.58;;
57441;SDS011;43284;47.042;15.498;2023-05-10T14:43:33;15.48;;;3.90;;
57441;SDS011;43284;47.042;15.498;2023-05-10T14:45:59;5.70;;;3.60;;
57441;SDS011;43284;47.042;15.498;2023-05-10T14:48:24;6.03;;;4.63;;
57441;SDS011;43284;47.042;15.498;2023-05-10T14:50:50;4.95;;;4.05;;
57441;SDS011;43284;47.042;15.498;2023-05-10T14:53:17;4.75;;;3.60;;
57441;SDS011;43284;47.042;15.498;2023-05-10T14:55:43;4.88;;;3.50;;
57441;SDS011;43284;47.042;15.498;2023-05-10T14:58:09;4.47;;;3.10;;
57441;SDS011;43284;47.042;15.498;2023-05-10T15:00:34;4.32;;;3.35;;
57441;SDS011;43284;47.042;15.498;2023-05-10T15:03:00;4.43;;;3.50;;
57441;SDS011;43284;47.042;15.498;2023-05-10T15:05:26;5.03;;;3.55;;
57441;SDS011;43284;47.042;15.498;2023-05-10T15:07:51;3.97;;;3.28;;
57441;SDS011;43284;47.042;15.498;2023-05-10T15:10:17;5.72;;;3.65;;
57441;SDS011;43284;47.042;15.498;2023-05-10T15:12:43;4.88;;;4.28;;
57441;SDS011;43284;47.042;15.498;2023-05-10T15:15:08;5.72;;;3.78;;